sensor_id;sensor_type;location;lat;lon;timestamp;temperature;humidity
6824;DHT22;58633;49.470;11.004;2024-01-11T00:00:11;-1.10;53.60
6824;DHT22;58633;49.470;11.004;2024-01-11T00:02:37;-1.10;53.60
6824;DHT22;58633;49.470;11.004;2024-01-11T00:05:03;-1.10;53.40
6824;DHT22;58633;49.470;11.004;2024-01-11T00:07:28;-1.10;53.60
6824;DHT22;58633;49.470;11.004;2024-01-11T00:09:54;-1.20;53.60
6824;DHT22;58633;49.470;11.004;2024-01-11T00:12:19;0.90;55.40
6824;DHT22;58633;49.470;11.004;2024-01-11T00:14:45;-1.00;54.00
6824;DHT22;58633;49.470;11.004;2024-01-11T00:17:10;-1.30;53.80
6824;DHT22;58633;49.470;11.004;2024-01-11T00:22:02;-1.40;53.80
6824;DHT22;58633;49.470;11.004;2024-01-11T00:24:27;-1.50;54.10
6824;DHT22;58633;49.470;11.004;2024-01-11T00:26:53;-1.50;54.20
6824;DHT22;58633;49.470;11.004;2024-01-11T00:29:18;-1.50;54.20
6824;DHT22;58633;49.470;11.004;2024-01-11T00:31:44;-1.70;54.30
6824;DHT22;58633;49.470;11.004;2024-01-11T00:34:09;-1.50;54.20
6824;DHT22;58633;49.470;11.004;2024-01-11T00:36:35;-1.60;54.50
6824;DHT22;58633;49.470;11.004;2024-01-11T00:39:02;-1.20;54.50
6824;DHT22;58633;49.470;11.004;2024-01-11T00:41:27;-1.60;54.60
6824;DHT22;58633;49.470;11.004;2024-01-11T00:43:53;-1.60;54.60
6824;DHT22;58633;49.470;11.004;2024-01-11T00:46:18;-1.20;55.10
6824;DHT22;58633;49.470;11.004;2024-01-11T00:48:44;-1.70;54.90
6824;DHT22;58633;49.470;11.004;2024-01-11T00:51:10;-1.80;54.50
6824;DHT22;58633;49.470;11.004;2024-01-11T00:53:35;-1.90;54.50
6824;DHT22;58633;49.470;11.004;2024-01-11T00:56:01;-1.90;54.60
6824;DHT22;58633;49.470;11.004;2024-01-11T00:58:26;-1.90;54.70
6824;DHT22;58633;49.470;11.004;2024-01-11T01:00:53;-2.00;54.50
6824;DHT22;58633;49.470;11.004;2024-01-11T01:03:22;-2.00;54.90
6824;DHT22;58633;49.470;11.004;2024-01-11T01:05:47;-2.00;54.50
6824;DHT22;58633;49.470;11.004;2024-01-11T01:10:39;-1.90;54.70
6824;DHT22;58633;49.470;11.004;2024-01-11T01:13:05;-1.90;54.70
6824;DHT22;58633;49.470;11.004;2024-01-11T01:17:57;-1.70;55.10
6824;DHT22;58633;49.470;11.004;2024-01-11T01:20:23;-2.00;54.80
6824;DHT22;58633;49.470;11.004;2024-01-11T01:22:49;-2.10;55.20
6824;DHT22;58633;49.470;11.004;2024-01-11T01:25:15;-1.90;55.40
6824;DHT22;58633;49.470;11.004;2024-01-11T01:27:41;-2.00;55.40
6824;DHT22;58633;49.470;11.004;2024-01-11T01:30:07;-1.80;55.20
6824;DHT22;58633;49.470;11.004;2024-01-11T01:32:32;-2.20;55.30
6824;DHT22;58633;49.470;11.004;2024-01-11T01:34:58;-2.00;55.40
6824;DHT22;58633;49.470;11.004;2024-01-11T01:37:23;-1.90;55.40
6824;DHT22;58633;49.470;11.004;2024-01-11T01:39:49;-2.10;55.60
6824;DHT22;58633;49.470;11.004;2024-01-11T01:42:15;-2.10;55.60
6824;DHT22;58633;49.470;11.004;2024-01-11T01:44:40;-2.20;55.60
6824;DHT22;58633;49.470;11.004;2024-01-11T01:47:08;-2.40;55.30
6824;DHT22;58633;49.470;11.004;2024-01-11T01:49:34;-2.20;55.90
6824;DHT22;58633;49.470;11.004;2024-01-11T01:52:01;-2.30;55.60
6824;DHT22;58633;49.470;11.004;2024-01-11T01:54:28;-2.20;55.90
6824;DHT22;58633;49.470;11.004;2024-01-11T01:56:55;-2.20;56.00
6824;DHT22;58633;49.470;11.004;2024-01-11T01:59:21;-2.20;56.10
6824;DHT22;58633;49.470;11.004;2024-01-11T02:01:47;-2.30;56.00
6824;DHT22;58633;49.470;11.004;2024-01-11T02:04:13;-2.30;56.00
6824;DHT22;58633;49.470;11.004;2024-01-11T02:06:40;-2.20;56.20
6824;DHT22;58633;49.470;11.004;2024-01-11T02:09:07;-2.30;55.90
6824;DHT22;58633;49.470;11.004;2024-01-11T02:11:34;-2.30;55.90
6824;DHT22;58633;49.470;11.004;2024-01-11T02:13:59;-2.30;56.00
6824;DHT22;58633;49.470;11.004;2024-01-11T02:16:25;-2.30;56.20
6824;DHT22;58633;49.470;11.004;2024-01-11T02:18:51;-2.40;56.20
6824;DHT22;58633;49.470;11.004;2024-01-11T02:21:16;-2.40;56.20
6824;DHT22;58633;49.470;11.004;2024-01-11T02:24:12;-2.50;56.30
6824;DHT22;58633;49.470;11.004;2024-01-11T02:27:01;-2.20;56.10
6824;DHT22;58633;49.470;11.004;2024-01-11T02:29:27;-2.50;56.30
6824;DHT22;58633;49.470;11.004;2024-01-11T02:31:54;-2.40;56.40
6824;DHT22;58633;49.470;11.004;2024-01-11T02:34:20;-2.40;56.50
6824;DHT22;58633;49.470;11.004;2024-01-11T02:36:46;-2.30;56.60
6824;DHT22;58633;49.470;11.004;2024-01-11T02:39:13;-2.40;56.50
6824;DHT22;58633;49.470;11.004;2024-01-11T02:41:42;-2.30;56.70
6824;DHT22;58633;49.470;11.004;2024-01-11T02:44:08;-2.40;56.60
6824;DHT22;58633;49.470;11.004;2024-01-11T02:46:34;-1.90;56.70
6824;DHT22;58633;49.470;11.004;2024-01-11T02:48:59;-2.40;56.70
6824;DHT22;58633;49.470;11.004;2024-01-11T02:51:25;-2.60;56.40
6824;DHT22;58633;49.470;11.004;2024-01-11T02:53:50;-2.50;57.10
6824;DHT22;58633;49.470;11.004;2024-01-11T02:56:15;-2.40;56.80
6824;DHT22;58633;49.470;11.004;2024-01-11T02:58:41;-2.50;56.70
6824;DHT22;58633;49.470;11.004;2024-01-11T03:01:07;-2.50;56.90
6824;DHT22;58633;49.470;11.004;2024-01-11T03:03:32;-2.50;56.90
6824;DHT22;58633;49.470;11.004;2024-01-11T03:05:58;-2.60;56.90
6824;DHT22;58633;49.470;11.004;2024-01-11T03:08:23;-2.60;56.90
6824;DHT22;58633;49.470;11.004;2024-01-11T03:10:49;-2.60;57.00
6824;DHT22;58633;49.470;11.004;2024-01-11T03:13:14;-2.30;57.50
6824;DHT22;58633;49.470;11.004;2024-01-11T03:15:40;-2.60;57.10
6824;DHT22;58633;49.470;11.004;2024-01-11T03:18:05;-2.60;57.20
6824;DHT22;58633;49.470;11.004;2024-01-11T03:20:31;-2.60;57.40
6824;DHT22;58633;49.470;11.004;2024-01-11T03:22:56;-2.60;57.40
6824;DHT22;58633;49.470;11.004;2024-01-11T03:25:22;-2.80;57.30
6824;DHT22;58633;49.470;11.004;2024-01-11T03:27:48;-2.80;57.40
6824;DHT22;58633;49.470;11.004;2024-01-11T03:30:13;-2.70;57.60
6824;DHT22;58633;49.470;11.004;2024-01-11T03:32:39;-2.70;57.80
6824;DHT22;58633;49.470;11.004;2024-01-11T03:35:07;-2.80;57.80
6824;DHT22;58633;49.470;11.004;2024-01-11T03:37:32;-2.70;57.40
6824;DHT22;58633;49.470;11.004;2024-01-11T03:39:58;-2.70;57.80
6824;DHT22;58633;49.470;11.004;2024-01-11T03:42:24;-2.60;58.00
6824;DHT22;58633;49.470;11.004;2024-01-11T03:44:49;-2.50;57.70
6824;DHT22;58633;49.470;11.004;2024-01-11T03:47:15;-2.70;58.00
6824;DHT22;58633;49.470;11.004;2024-01-11T03:49:40;-2.70;57.80
6824;DHT22;58633;49.470;11.004;2024-01-11T03:52:06;-2.80;57.70
6824;DHT22;58633;49.470;11.004;2024-01-11T03:54:32;-2.70;57.90
6824;DHT22;58633;49.470;11.004;2024-01-11T03:56:57;-1.70;58.70
6824;DHT22;58633;49.470;11.004;2024-01-11T03:59:23;-2.90;57.80
6824;DHT22;58633;49.470;11.004;2024-01-11T04:01:48;-2.90;57.90
6824;DHT22;58633;49.470;11.004;2024-01-11T04:04:14;-2.90;58.10
6824;DHT22;58633;49.470;11.004;2024-01-11T04:06:39;-3.00;58.00
6824;DHT22;58633;49.470;11.004;2024-01-11T04:09:05;-2.90;58.20
6824;DHT22;58633;49.470;11.004;2024-01-11T04:11:30;-3.20;58.10
6824;DHT22;58633;49.470;11.004;2024-01-11T04:13:56;-3.10;58.30
6824;DHT22;58633;49.470;11.004;2024-01-11T04:16:21;-2.90;58.50
6824;DHT22;58633;49.470;11.004;2024-01-11T04:18:47;-3.30;58.40
6824;DHT22;58633;49.470;11.004;2024-01-11T04:21:26;-3.10;58.60
6824;DHT22;58633;49.470;11.004;2024-01-11T04:23:56;-3.20;58.60
6824;DHT22;58633;49.470;11.004;2024-01-11T04:26:22;-3.20;58.70
6824;DHT22;58633;49.470;11.004;2024-01-11T04:28:48;-3.20;58.50
6824;DHT22;58633;49.470;11.004;2024-01-11T04:31:14;-3.40;58.70
6824;DHT22;58633;49.470;11.004;2024-01-11T04:33:41;-3.20;59.00
6824;DHT22;58633;49.470;11.004;2024-01-11T04:36:08;-3.20;58.60
6824;DHT22;58633;49.470;11.004;2024-01-11T04:38:33;-3.10;58.60
6824;DHT22;58633;49.470;11.004;2024-01-11T04:40:59;-3.40;58.80
6824;DHT22;58633;49.470;11.004;2024-01-11T04:43:25;-3.50;58.80
6824;DHT22;58633;49.470;11.004;2024-01-11T04:45:51;-3.40;58.90
6824;DHT22;58633;49.470;11.004;2024-01-11T04:48:17;-3.40;59.00
6824;DHT22;58633;49.470;11.004;2024-01-11T04:50:44;-3.40;59.10
6824;DHT22;58633;49.470;11.004;2024-01-11T04:53:09;-3.40;59.10
6824;DHT22;58633;49.470;11.004;2024-01-11T04:55:35;-3.50;59.10
6824;DHT22;58633;49.470;11.004;2024-01-11T04:58:00;-3.00;59.50
6824;DHT22;58633;49.470;11.004;2024-01-11T05:00:26;-3.40;59.30
6824;DHT22;58633;49.470;11.004;2024-01-11T05:02:51;-3.40;59.20
6824;DHT22;58633;49.470;11.004;2024-01-11T05:05:17;-3.50;59.20
6824;DHT22;58633;49.470;11.004;2024-01-11T05:10:08;-3.50;59.30
6824;DHT22;58633;49.470;11.004;2024-01-11T05:12:34;-3.40;59.80
6824;DHT22;58633;49.470;11.004;2024-01-11T05:15:00;-3.50;59.70
6824;DHT22;58633;49.470;11.004;2024-01-11T05:17:26;-3.40;59.60
6824;DHT22;58633;49.470;11.004;2024-01-11T05:19:52;-3.50;59.50
6824;DHT22;58633;49.470;11.004;2024-01-11T05:22:18;-3.50;59.60
6824;DHT22;58633;49.470;11.004;2024-01-11T05:24:43;-3.50;59.70
6824;DHT22;58633;49.470;11.004;2024-01-11T05:27:09;-3.60;59.70
6824;DHT22;58633;49.470;11.004;2024-01-11T05:29:34;-3.60;60.00
6824;DHT22;58633;49.470;11.004;2024-01-11T05:32:00;-3.40;59.70
6824;DHT22;58633;49.470;11.004;2024-01-11T05:34:25;-3.40;60.10
6824;DHT22;58633;49.470;11.004;2024-01-11T05:36:51;-3.70;59.90
6824;DHT22;58633;49.470;11.004;2024-01-11T05:39:16;-3.60;60.00
6824;DHT22;58633;49.470;11.004;2024-01-11T05:41:45;-3.40;60.10
6824;DHT22;58633;49.470;11.004;2024-01-11T05:44:10;-3.70;59.90
6824;DHT22;58633;49.470;11.004;2024-01-11T05:46:36;-3.70;60.00
6824;DHT22;58633;49.470;11.004;2024-01-11T05:49:02;-3.80;60.00
6824;DHT22;58633;49.470;11.004;2024-01-11T05:51:27;-3.80;59.70
6824;DHT22;58633;49.470;11.004;2024-01-11T05:53:53;-3.70;60.20
6824;DHT22;58633;49.470;11.004;2024-01-11T05:56:19;-3.60;60.10
6824;DHT22;58633;49.470;11.004;2024-01-11T05:58:47;-3.70;60.10
6824;DHT22;58633;49.470;11.004;2024-01-11T06:01:13;-3.70;60.20
6824;DHT22;58633;49.470;11.004;2024-01-11T06:03:38;-4.80;59.40
6824;DHT22;58633;49.470;11.004;2024-01-11T06:06:05;-3.60;60.50
6824;DHT22;58633;49.470;11.004;2024-01-11T06:08:31;-3.60;60.40
6824;DHT22;58633;49.470;11.004;2024-01-11T06:10:57;-3.70;60.30
6824;DHT22;58633;49.470;11.004;2024-01-11T06:13:22;-3.50;60.10
6824;DHT22;58633;49.470;11.004;2024-01-11T06:15:48;-3.50;60.00
6824;DHT22;58633;49.470;11.004;2024-01-11T06:18:15;-3.90;59.60
6824;DHT22;58633;49.470;11.004;2024-01-11T06:20:40;-3.60;60.40
6824;DHT22;58633;49.470;11.004;2024-01-11T06:23:06;-3.70;60.30
6824;DHT22;58633;49.470;11.004;2024-01-11T06:25:31;-3.70;60.30
6824;DHT22;58633;49.470;11.004;2024-01-11T06:27:57;-3.60;60.40
6824;DHT22;58633;49.470;11.004;2024-01-11T06:30:22;-3.70;60.20
6824;DHT22;58633;49.470;11.004;2024-01-11T06:32:48;-3.80;60.10
6824;DHT22;58633;49.470;11.004;2024-01-11T06:35:13;-2.50;61.40
6824;DHT22;58633;49.470;11.004;2024-01-11T06:37:39;-3.90;60.30
6824;DHT22;58633;49.470;11.004;2024-01-11T06:40:05;-3.70;60.70
6824;DHT22;58633;49.470;11.004;2024-01-11T06:42:33;-3.80;60.40
6824;DHT22;58633;49.470;11.004;2024-01-11T06:44:58;-3.90;60.30
6824;DHT22;58633;49.470;11.004;2024-01-11T06:47:24;-3.50;61.40
6824;DHT22;58633;49.470;11.004;2024-01-11T06:49:50;-3.40;61.10
6824;DHT22;58633;49.470;11.004;2024-01-11T06:52:15;-3.40;60.20
6824;DHT22;58633;49.470;11.004;2024-01-11T06:54:41;-3.60;59.90
6824;DHT22;58633;49.470;11.004;2024-01-11T06:57:07;-3.60;59.90
6824;DHT22;58633;49.470;11.004;2024-01-11T06:59:32;-3.70;59.60
6824;DHT22;58633;49.470;11.004;2024-01-11T07:01:58;-3.70;60.00
6824;DHT22;58633;49.470;11.004;2024-01-11T07:04:23;-3.70;60.20
6824;DHT22;58633;49.470;11.004;2024-01-11T07:06:49;-3.90;59.70
6824;DHT22;58633;49.470;11.004;2024-01-11T07:09:14;-3.70;61.00
6824;DHT22;58633;49.470;11.004;2024-01-11T07:11:42;-3.80;59.50
6824;DHT22;58633;49.470;11.004;2024-01-11T07:14:08;-3.90;59.80
6824;DHT22;58633;49.470;11.004;2024-01-11T07:16:33;-3.80;60.00
6824;DHT22;58633;49.470;11.004;2024-01-11T07:18:59;-3.70;60.20
6824;DHT22;58633;49.470;11.004;2024-01-11T07:21:24;-4.80;59.70
6824;DHT22;58633;49.470;11.004;2024-01-11T07:23:57;-3.40;60.40
6824;DHT22;58633;49.470;11.004;2024-01-11T07:26:23;-3.40;60.80
6824;DHT22;58633;49.470;11.004;2024-01-11T07:28:49;-3.70;60.30
6824;DHT22;58633;49.470;11.004;2024-01-11T07:31:15;-3.60;59.90
6824;DHT22;58633;49.470;11.004;2024-01-11T07:33:41;-3.30;60.60
6824;DHT22;58633;49.470;11.004;2024-01-11T07:36:06;-3.60;60.30
6824;DHT22;58633;49.470;11.004;2024-01-11T07:38:32;-3.80;60.10
6824;DHT22;58633;49.470;11.004;2024-01-11T07:40:58;-3.90;60.00
6824;DHT22;58633;49.470;11.004;2024-01-11T07:43:23;-3.70;60.40
6824;DHT22;58633;49.470;11.004;2024-01-11T07:45:49;-3.50;60.90
6824;DHT22;58633;49.470;11.004;2024-01-11T07:48:15;-3.60;60.90
6824;DHT22;58633;49.470;11.004;2024-01-11T07:50:41;-3.20;62.20
6824;DHT22;58633;49.470;11.004;2024-01-11T07:53:06;-2.90;62.10
6824;DHT22;58633;49.470;11.004;2024-01-11T07:55:32;-2.80;61.00
6824;DHT22;58633;49.470;11.004;2024-01-11T07:57:58;-2.80;59.80
6824;DHT22;58633;49.470;11.004;2024-01-11T08:00:24;-3.00;59.50
6824;DHT22;58633;49.470;11.004;2024-01-11T08:02:50;-3.10;60.10
6824;DHT22;58633;49.470;11.004;2024-01-11T08:05:15;-3.10;59.60
6824;DHT22;58633;49.470;11.004;2024-01-11T08:07:41;-3.20;59.20
6824;DHT22;58633;49.470;11.004;2024-01-11T08:10:10;-3.10;59.70
6824;DHT22;58633;49.470;11.004;2024-01-11T08:12:36;-3.30;59.20
6824;DHT22;58633;49.470;11.004;2024-01-11T08:15:02;-3.30;59.70
6824;DHT22;58633;49.470;11.004;2024-01-11T08:17:27;-0.90;62.00
6824;DHT22;58633;49.470;11.004;2024-01-11T08:19:53;-3.30;59.90
6824;DHT22;58633;49.470;11.004;2024-01-11T08:22:20;-3.40;59.90
6824;DHT22;58633;49.470;11.004;2024-01-11T08:24:46;-3.30;60.00
6824;DHT22;58633;49.470;11.004;2024-01-11T08:27:12;-3.20;60.00
6824;DHT22;58633;49.470;11.004;2024-01-11T08:29:38;-3.30;59.80
6824;DHT22;58633;49.470;11.004;2024-01-11T08:32:04;-3.30;59.60
6824;DHT22;58633;49.470;11.004;2024-01-11T08:34:33;-2.10;61.10
6824;DHT22;58633;49.470;11.004;2024-01-11T08:36:58;-3.20;59.60
6824;DHT22;58633;49.470;11.004;2024-01-11T08:39:24;-3.20;60.00
6824;DHT22;58633;49.470;11.004;2024-01-11T08:41:49;-3.20;60.00
6824;DHT22;58633;49.470;11.004;2024-01-11T08:44:15;-2.50;60.20
6824;DHT22;58633;49.470;11.004;2024-01-11T08:46:40;-3.40;59.40
6824;DHT22;58633;49.470;11.004;2024-01-11T08:49:06;-2.90;60.20
6824;DHT22;58633;49.470;11.004;2024-01-11T08:51:32;-2.40;59.90
6824;DHT22;58633;49.470;11.004;2024-01-11T08:53:58;-2.80;60.00
6824;DHT22;58633;49.470;11.004;2024-01-11T08:56:23;-2.40;59.80
6824;DHT22;58633;49.470;11.004;2024-01-11T08:58:49;-2.50;59.50
6824;DHT22;58633;49.470;11.004;2024-01-11T09:01:15;-2.40;59.90
6824;DHT22;58633;49.470;11.004;2024-01-11T09:03:41;-2.30;59.90
6824;DHT22;58633;49.470;11.004;2024-01-11T09:06:06;-2.30;59.80
6824;DHT22;58633;49.470;11.004;2024-01-11T09:08:32;-0.90;60.20
6824;DHT22;58633;49.470;11.004;2024-01-11T09:10:58;-1.50;60.00
6824;DHT22;58633;49.470;11.004;2024-01-11T09:13:24;0.20;60.70
6824;DHT22;58633;49.470;11.004;2024-01-11T09:15:51;1.70;58.10
6824;DHT22;58633;49.470;11.004;2024-01-11T09:18:17;1.50;58.30
6824;DHT22;58633;49.470;11.004;2024-01-11T09:20:43;2.10;56.20
6824;DHT22;58633;49.470;11.004;2024-01-11T09:23:09;2.80;55.30
6824;DHT22;58633;49.470;11.004;2024-01-11T09:25:34;2.80;53.20
6824;DHT22;58633;49.470;11.004;2024-01-11T09:28:00;1.80;53.00
6824;DHT22;58633;49.470;11.004;2024-01-11T09:30:25;2.80;53.70
6824;DHT22;58633;49.470;11.004;2024-01-11T09:42:38;1.80;55.30
6824;DHT22;58633;49.470;11.004;2024-01-11T09:45:14;1.20;55.20
6824;DHT22;58633;49.470;11.004;2024-01-11T09:47:41;1.20;55.40
6824;DHT22;58633;49.470;11.004;2024-01-11T09:50:07;1.70;55.90
6824;DHT22;58633;49.470;11.004;2024-01-11T09:52:33;0.90;55.40
6824;DHT22;58633;49.470;11.004;2024-01-11T09:54:59;0.60;54.90
6824;DHT22;58633;49.470;11.004;2024-01-11T09:57:29;1.10;55.60
6824;DHT22;58633;49.470;11.004;2024-01-11T09:59:56;1.60;55.40
6824;DHT22;58633;49.470;11.004;2024-01-11T10:02:23;1.20;55.50
6824;DHT22;58633;49.470;11.004;2024-01-11T10:04:49;1.20;55.20
6824;DHT22;58633;49.470;11.004;2024-01-11T10:07:19;1.60;55.30
6824;DHT22;58633;49.470;11.004;2024-01-11T10:09:46;1.30;54.90
6824;DHT22;58633;49.470;11.004;2024-01-11T10:12:12;1.50;55.00
6824;DHT22;58633;49.470;11.004;2024-01-11T10:14:37;1.20;54.30
6824;DHT22;58633;49.470;11.004;2024-01-11T10:17:03;1.90;54.80
6824;DHT22;58633;49.470;11.004;2024-01-11T10:19:30;2.30;55.10
6824;DHT22;58633;49.470;11.004;2024-01-11T10:21:55;1.80;55.00
6824;DHT22;58633;49.470;11.004;2024-01-11T10:24:22;2.60;55.00
6824;DHT22;58633;49.470;11.004;2024-01-11T10:27:00;1.70;54.20
6824;DHT22;58633;49.470;11.004;2024-01-11T10:29:33;2.00;54.80
6824;DHT22;58633;49.470;11.004;2024-01-11T10:31:59;2.00;54.50
6824;DHT22;58633;49.470;11.004;2024-01-11T10:34:25;2.10;54.40
6824;DHT22;58633;49.470;11.004;2024-01-11T10:36:51;2.10;54.40
6824;DHT22;58633;49.470;11.004;2024-01-11T10:39:17;2.20;54.40
6824;DHT22;58633;49.470;11.004;2024-01-11T10:41:47;2.50;54.50
6824;DHT22;58633;49.470;11.004;2024-01-11T10:44:20;2.70;53.60
6824;DHT22;58633;49.470;11.004;2024-01-11T10:46:50;2.80;54.10
6824;DHT22;58633;49.470;11.004;2024-01-11T10:49:18;2.80;53.60
6824;DHT22;58633;49.470;11.004;2024-01-11T10:51:53;3.00;53.30
6824;DHT22;58633;49.470;11.004;2024-01-11T10:54:21;2.90;52.70
6824;DHT22;58633;49.470;11.004;2024-01-11T10:56:48;2.90;52.70
6824;DHT22;58633;49.470;11.004;2024-01-11T10:59:15;3.00;52.60
6824;DHT22;58633;49.470;11.004;2024-01-11T11:01:42;3.50;52.10
6824;DHT22;58633;49.470;11.004;2024-01-11T11:04:07;3.60;51.80
6824;DHT22;58633;49.470;11.004;2024-01-11T11:06:35;3.90;51.90
6824;DHT22;58633;49.470;11.004;2024-01-11T11:09:02;3.90;51.40
6824;DHT22;58633;49.470;11.004;2024-01-11T11:11:30;4.00;51.80
6824;DHT22;58633;49.470;11.004;2024-01-11T11:13:59;4.00;51.40
6824;DHT22;58633;49.470;11.004;2024-01-11T11:16:26;4.40;51.20
6824;DHT22;58633;49.470;11.004;2024-01-11T11:18:55;4.30;51.40
6824;DHT22;58633;49.470;11.004;2024-01-11T11:21:21;5.00;51.70
6824;DHT22;58633;49.470;11.004;2024-01-11T11:23:46;4.70;50.80
6824;DHT22;58633;49.470;11.004;2024-01-11T11:26:16;4.90;50.90
6824;DHT22;58633;49.470;11.004;2024-01-11T11:28:42;5.00;49.80
6824;DHT22;58633;49.470;11.004;2024-01-11T11:31:10;4.60;49.80
6824;DHT22;58633;49.470;11.004;2024-01-11T11:33:36;4.70;49.70
6824;DHT22;58633;49.470;11.004;2024-01-11T11:36:03;4.70;49.90
6824;DHT22;58633;49.470;11.004;2024-01-11T11:38:30;4.70;49.50
6824;DHT22;58633;49.470;11.004;2024-01-11T11:40:57;5.20;49.60
6824;DHT22;58633;49.470;11.004;2024-01-11T11:43:24;6.20;50.10
6824;DHT22;58633;49.470;11.004;2024-01-11T11:45:52;5.20;49.50
6824;DHT22;58633;49.470;11.004;2024-01-11T11:53:40;6.00;47.90
6824;DHT22;58633;49.470;11.004;2024-01-11T11:56:06;6.00;48.30
6824;DHT22;58633;49.470;11.004;2024-01-11T11:58:33;6.00;48.10
6824;DHT22;58633;49.470;11.004;2024-01-11T12:01:00;6.20;48.50
6824;DHT22;58633;49.470;11.004;2024-01-11T12:03:33;6.50;48.90
6824;DHT22;58633;49.470;11.004;2024-01-11T12:05:59;7.00;48.30
6824;DHT22;58633;49.470;11.004;2024-01-11T12:08:25;6.80;48.30
6824;DHT22;58633;49.470;11.004;2024-01-11T12:10:52;6.60;47.80
6824;DHT22;58633;49.470;11.004;2024-01-11T12:13:21;7.00;48.40
6824;DHT22;58633;49.470;11.004;2024-01-11T12:15:47;7.10;48.10
6824;DHT22;58633;49.470;11.004;2024-01-11T12:18:12;7.10;47.40
6824;DHT22;58633;49.470;11.004;2024-01-11T12:20:38;6.70;46.40
6824;DHT22;58633;49.470;11.004;2024-01-11T12:23:03;7.20;47.20
6824;DHT22;58633;49.470;11.004;2024-01-11T12:25:30;7.20;46.80
6824;DHT22;58633;49.470;11.004;2024-01-11T12:27:56;10.60;47.70
6824;DHT22;58633;49.470;11.004;2024-01-11T12:30:22;7.30;46.30
6824;DHT22;58633;49.470;11.004;2024-01-11T12:32:49;8.10;46.10
6824;DHT22;58633;49.470;11.004;2024-01-11T12:35:16;7.50;46.00
6824;DHT22;58633;49.470;11.004;2024-01-11T12:37:51;7.60;45.50
6824;DHT22;58633;49.470;11.004;2024-01-11T12:40:17;8.10;46.00
6824;DHT22;58633;49.470;11.004;2024-01-11T12:42:43;7.60;45.90
6824;DHT22;58633;49.470;11.004;2024-01-11T12:45:09;7.60;45.60
6824;DHT22;58633;49.470;11.004;2024-01-11T12:47:34;7.80;45.30
6824;DHT22;58633;49.470;11.004;2024-01-11T12:50:00;7.70;45.20
6824;DHT22;58633;49.470;11.004;2024-01-11T12:52:25;7.90;45.30
6824;DHT22;58633;49.470;11.004;2024-01-11T12:54:52;8.10;44.70
6824;DHT22;58633;49.470;11.004;2024-01-11T12:57:19;8.00;44.70
6824;DHT22;58633;49.470;11.004;2024-01-11T12:59:45;8.00;45.60
6824;DHT22;58633;49.470;11.004;2024-01-11T13:02:11;8.10;44.80
6824;DHT22;58633;49.470;11.004;2024-01-11T13:04:39;8.40;44.00
6824;DHT22;58633;49.470;11.004;2024-01-11T13:07:05;8.20;44.30
6824;DHT22;58633;49.470;11.004;2024-01-11T13:09:32;8.50;44.10
6824;DHT22;58633;49.470;11.004;2024-01-11T13:11:58;8.30;44.30
6824;DHT22;58633;49.470;11.004;2024-01-11T13:14:24;9.70;47.30
6824;DHT22;58633;49.470;11.004;2024-01-11T13:16:49;9.50;47.40
6824;DHT22;58633;49.470;11.004;2024-01-11T13:19:15;9.30;46.20
6824;DHT22;58633;49.470;11.004;2024-01-11T13:21:40;9.00;43.20
6824;DHT22;58633;49.470;11.004;2024-01-11T13:24:06;8.80;43.40
6824;DHT22;58633;49.470;11.004;2024-01-11T13:28:59;8.90;42.80
6824;DHT22;58633;49.470;11.004;2024-01-11T13:31:24;8.90;43.10
6824;DHT22;58633;49.470;11.004;2024-01-11T13:33:50;9.00;43.10
6824;DHT22;58633;49.470;11.004;2024-01-11T13:36:15;9.10;43.00
6824;DHT22;58633;49.470;11.004;2024-01-11T13:38:41;9.20;42.80
6824;DHT22;58633;49.470;11.004;2024-01-11T13:41:07;9.60;41.90
6824;DHT22;58633;49.470;11.004;2024-01-11T13:43:35;8.90;41.60
6824;DHT22;58633;49.470;11.004;2024-01-11T13:46:01;8.80;41.80
6824;DHT22;58633;49.470;11.004;2024-01-11T13:48:30;9.00;41.30
6824;DHT22;58633;49.470;11.004;2024-01-11T13:50:57;8.30;40.80
6824;DHT22;58633;49.470;11.004;2024-01-11T13:53:23;9.50;42.30
6824;DHT22;58633;49.470;11.004;2024-01-11T13:55:48;10.40;42.30
6824;DHT22;58633;49.470;11.004;2024-01-11T13:58:14;10.10;44.00
6824;DHT22;58633;49.470;11.004;2024-01-11T14:00:40;10.70;42.80
6824;DHT22;58633;49.470;11.004;2024-01-11T14:03:06;9.30;43.10
6824;DHT22;58633;49.470;11.004;2024-01-11T14:05:34;9.50;44.40
6824;DHT22;58633;49.470;11.004;2024-01-11T14:12:52;9.90;44.90
6824;DHT22;58633;49.470;11.004;2024-01-11T14:15:19;9.90;45.00
6824;DHT22;58633;49.470;11.004;2024-01-11T14:17:44;9.30;45.00
6824;DHT22;58633;49.470;11.004;2024-01-11T14:20:10;9.40;46.70
6824;DHT22;58633;49.470;11.004;2024-01-11T14:22:40;10.30;46.50
6824;DHT22;58633;49.470;11.004;2024-01-11T14:25:07;10.30;45.40
6824;DHT22;58633;49.470;11.004;2024-01-11T14:29:59;8.90;46.90
6824;DHT22;58633;49.470;11.004;2024-01-11T14:34:52;9.40;49.70
6824;DHT22;58633;49.470;11.004;2024-01-11T14:37:18;10.10;47.30
6824;DHT22;58633;49.470;11.004;2024-01-11T14:42:09;10.50;47.50
6824;DHT22;58633;49.470;11.004;2024-01-11T14:47:02;10.60;51.10
6824;DHT22;58633;49.470;11.004;2024-01-11T14:49:28;8.70;41.20
6824;DHT22;58633;49.470;11.004;2024-01-11T14:54:20;8.20;49.50
6824;DHT22;58633;49.470;11.004;2024-01-11T15:04:07;6.50;50.70
6824;DHT22;58633;49.470;11.004;2024-01-11T15:18:45;5.60;53.10
6824;DHT22;58633;49.470;11.004;2024-01-11T15:21:11;5.40;53.70
6824;DHT22;58633;49.470;11.004;2024-01-11T15:26:03;5.30;54.30
6824;DHT22;58633;49.470;11.004;2024-01-11T15:28:29;6.40;55.10
6824;DHT22;58633;49.470;11.004;2024-01-11T15:30:54;5.20;53.90
6824;DHT22;58633;49.470;11.004;2024-01-11T15:33:20;4.80;54.70
6824;DHT22;58633;49.470;11.004;2024-01-11T15:40:39;4.60;55.30
6824;DHT22;58633;49.470;11.004;2024-01-11T15:43:05;4.70;44.30
6824;DHT22;58633;49.470;11.004;2024-01-11T15:45:32;4.20;55.80
6824;DHT22;58633;49.470;11.004;2024-01-11T16:00:08;3.80;55.80
6824;DHT22;58633;49.470;11.004;2024-01-11T16:07:27;4.20;57.70
6824;DHT22;58633;49.470;11.004;2024-01-11T16:31:50;3.10;47.10
6824;DHT22;58633;49.470;11.004;2024-01-11T16:51:21;4.20;56.50
6824;DHT22;58633;49.470;11.004;2024-01-11T16:53:47;3.00;59.10
6824;DHT22;58633;49.470;11.004;2024-01-11T16:56:14;1.80;57.60
6824;DHT22;58633;49.470;11.004;2024-01-11T16:58:39;3.00;58.90
6824;DHT22;58633;49.470;11.004;2024-01-11T17:13:16;3.10;64.10
6824;DHT22;58633;49.470;11.004;2024-01-11T17:42:28;2.00;64.40
6824;DHT22;58633;49.470;11.004;2024-01-11T17:44:54;2.60;65.90
6824;DHT22;58633;49.470;11.004;2024-01-11T18:14:13;1.50;65.00
6824;DHT22;58633;49.470;11.004;2024-01-11T18:31:17;2.00;51.20
6824;DHT22;58633;49.470;11.004;2024-01-11T18:41:04;1.70;51.30
6824;DHT22;58633;49.470;11.004;2024-01-11T18:43:30;2.20;67.20
6824;DHT22;58633;49.470;11.004;2024-01-11T18:58:05;2.10;68.00
6824;DHT22;58633;49.470;11.004;2024-01-11T19:15:08;1.90;68.30
6824;DHT22;58633;49.470;11.004;2024-01-11T20:03:54;1.30;53.90
6824;DHT22;58633;49.470;11.004;2024-01-11T20:08:49;0.20;68.50
6824;DHT22;58633;49.470;11.004;2024-01-11T20:30:45;0.40;54.80
6824;DHT22;58633;49.470;11.004;2024-01-11T20:38:04;-0.70;69.30
6824;DHT22;58633;49.470;11.004;2024-01-11T20:47:47;0.80;65.90
6824;DHT22;58633;49.470;11.004;2024-01-11T20:57:31;0.00;56.10
6824;DHT22;58633;49.470;11.004;2024-01-11T21:12:07;0.30;71.80